Weather at Winn Airport

Public forecast

Using degrees Fahrenheit for public forecast. Weather courtesy of forecast.io.

Closest aviation weather report (METAR) to Winn Airport

Closest report is Corvallis Municipal Airport, 7.0 nm (13.0 km) SSW. Retrieved 2021/07/24 22:56 UTC (28 minutes ago):

KCVO 242256Z AUTO 02012KT 10SM CLR 33/12 A3002 RMK AO2 SLP164 T03330117

Closest aviation forecast (TAF) to Winn Airport

Closest forecast is Salem Municipal Airport/McNary Field, 20.6 nm (38.1 km) NNE. Retrieved 2021/07/24 18:27 UTC (5 hours ago):

TAF KSLE 241723Z 2418/2518 01010KT P6SM SKC FM242200 36011G20KT P6SM SKC FM250300 34010KT P6SM SKC FM250700 33004KT P6SM SKC